createdAt,value
2018-08-04T00:01:52.115Z,16.70
2018-08-04T00:04:22.221Z,16.60
2018-08-04T00:06:57.518Z,16.60
2018-08-04T00:09:30.324Z,16.50
2018-08-04T00:12:03.524Z,16.40
2018-08-04T00:14:37.300Z,16.50
2018-08-04T00:17:11.345Z,16.40
2018-08-04T00:19:44.377Z,16.30
2018-08-04T00:22:14.325Z,16.30
2018-08-04T00:24:48.248Z,16.30
2018-08-04T00:27:19.347Z,16.30
2018-08-04T00:29:50.385Z,16.30
2018-08-04T00:32:21.968Z,16.30
2018-08-04T00:34:55.142Z,16.30
2018-08-04T00:37:27.412Z,16.30
2018-08-04T00:39:59.778Z,16.30
2018-08-04T00:42:32.203Z,16.30
2018-08-04T00:45:04.371Z,16.30
2018-08-04T00:47:35.864Z,16.30
2018-08-04T00:50:08.251Z,16.20
2018-08-04T00:52:38.673Z,16.10
2018-08-04T00:55:09.357Z,16.10
2018-08-04T00:57:39.964Z,16.10
2018-08-04T01:00:12.360Z,16.20
2018-08-04T01:02:43.169Z,16.20
2018-08-04T01:05:15.184Z,16.10
2018-08-04T01:07:46.166Z,16.20
2018-08-04T01:10:15.166Z,16.20
2018-08-04T01:12:48.686Z,16.20
2018-08-04T01:15:18.856Z,16.20
2018-08-04T01:17:50.279Z,16.20
2018-08-04T01:20:19.284Z,16.10
2018-08-04T01:22:48.286Z,16.10
2018-08-04T01:25:17.351Z,16.00
2018-08-04T01:27:46.262Z,16.00
2018-08-04T01:30:15.274Z,15.90
2018-08-04T01:32:44.256Z,15.90
2018-08-04T01:35:13.179Z,16.00
2018-08-04T01:37:42.175Z,16.00
2018-08-04T01:40:11.234Z,16.00
2018-08-04T01:42:40.196Z,16.00
2018-08-04T01:45:09.134Z,16.00
2018-08-04T01:47:38.062Z,16.00
2018-08-04T01:50:07.131Z,16.00
2018-08-04T01:52:36.271Z,16.00
2018-08-04T01:55:05.290Z,15.90
2018-08-04T01:57:34.400Z,15.90
2018-08-04T02:00:04.379Z,15.90
2018-08-04T02:02:33.377Z,15.90
2018-08-04T02:05:02.378Z,16.00
2018-08-04T02:07:31.439Z,16.00
2018-08-04T02:10:00.424Z,16.00
2018-08-04T02:12:29.597Z,16.00
2018-08-04T02:17:28.370Z,16.00
2018-08-04T02:19:57.406Z,16.00
2018-08-04T02:22:26.374Z,16.00
2018-08-04T02:24:55.434Z,16.00
2018-08-04T02:29:53.000Z,16.20
2018-08-04T02:32:22.005Z,16.20
2018-08-04T02:34:50.947Z,16.20
2018-08-04T02:37:19.936Z,16.30
2018-08-04T02:39:48.872Z,16.40
2018-08-04T02:42:18.860Z,16.40
2018-08-04T02:44:47.800Z,16.40
2018-08-04T02:47:16.758Z,16.30
2018-08-04T02:49:51.807Z,16.20
2018-08-04T02:52:20.748Z,16.10
2018-08-04T02:54:49.825Z,16.10
2018-08-04T02:57:18.816Z,16.10
2018-08-04T03:04:44.929Z,16.30
2018-08-04T03:07:14.845Z,16.30
2018-08-04T03:09:43.775Z,16.30
2018-08-04T03:12:12.764Z,16.40
2018-08-04T03:22:07.696Z,16.50
2018-08-04T03:24:36.931Z,16.70
2018-08-04T03:27:06.016Z,16.70
2018-08-04T03:29:35.216Z,16.80
2018-08-04T03:34:32.899Z,17.00
2018-08-04T03:39:30.512Z,17.10
2018-08-04T03:41:59.445Z,17.20
2018-08-04T03:44:28.416Z,17.20
2018-08-04T03:46:57.450Z,17.20
2018-08-04T03:51:55.193Z,17.40
2018-08-04T03:54:24.118Z,17.50
2018-08-04T03:56:53.093Z,17.50
2018-08-04T03:59:22.187Z,17.50
2018-08-04T04:01:51.244Z,17.40
2018-08-04T04:04:20.153Z,17.40
2018-08-04T04:06:49.117Z,17.30
2018-08-04T04:09:18.150Z,17.40
2018-08-04T04:11:47.203Z,17.40
2018-08-04T04:16:45.655Z,17.50
2018-08-04T04:19:15.306Z,17.50
2018-08-04T04:21:44.254Z,17.50
2018-08-04T04:24:13.254Z,17.40
2018-08-04T04:26:42.222Z,17.30
2018-08-04T04:29:11.158Z,17.30
2018-08-04T04:34:08.694Z,17.40
2018-08-04T04:36:37.741Z,17.40
2018-08-04T04:41:36.009Z,17.40
2018-08-04T04:44:05.236Z,17.50
2018-08-04T04:49:09.230Z,17.50
2018-08-04T04:51:38.714Z,17.60
2018-08-04T04:54:07.667Z,17.80
2018-08-04T04:56:36.884Z,17.90
2018-08-04T04:59:05.955Z,18.20
2018-08-04T05:01:35.207Z,18.40
2018-08-04T05:04:04.410Z,18.60
2018-08-04T05:06:33.391Z,18.80
2018-08-04T05:09:04.751Z,19.00
2018-08-04T05:11:33.850Z,19.00
2018-08-04T05:14:02.959Z,19.10
2018-08-04T05:16:32.006Z,19.10
2018-08-04T05:19:01.036Z,19.10
2018-08-04T05:21:30.289Z,19.10
2018-08-04T05:26:27.923Z,19.30
2018-08-04T05:28:56.986Z,19.50
2018-08-04T05:31:25.929Z,19.50
2018-08-04T05:33:55.018Z,19.70
2018-08-04T05:36:24.098Z,19.90
2018-08-04T05:38:53.063Z,20.00
2018-08-04T05:41:22.116Z,20.00
2018-08-04T05:43:51.109Z,20.00
2018-08-04T05:46:23.091Z,20.00
2018-08-04T05:51:21.390Z,20.20
2018-08-04T05:56:18.990Z,20.40
2018-08-04T05:58:47.923Z,20.60
2018-08-04T06:01:16.989Z,20.80
2018-08-04T06:03:45.958Z,21.00
2018-08-04T06:06:14.857Z,21.20
2018-08-04T06:08:43.928Z,21.50
2018-08-04T06:13:41.580Z,22.10
2018-08-04T06:16:10.614Z,22.20
2018-08-04T06:18:39.663Z,22.50
2018-08-04T06:21:08.682Z,22.90
2018-08-04T06:23:37.680Z,23.30
2018-08-04T06:26:06.768Z,23.70
2018-08-04T06:28:35.990Z,23.80
2018-08-04T06:31:05.030Z,23.90
2018-08-04T06:33:34.503Z,24.20
2018-08-04T06:36:03.537Z,24.30
2018-08-04T06:38:32.614Z,24.50
2018-08-04T06:41:02.084Z,24.50
2018-08-04T06:43:31.116Z,24.50
2018-08-04T06:46:00.119Z,24.70
2018-08-04T06:48:30.101Z,25.00
2018-08-04T06:53:27.856Z,25.10
2018-08-04T06:55:56.831Z,25.10
2018-08-04T06:58:25.838Z,25.10
2018-08-04T07:00:54.872Z,25.10
2018-08-04T07:03:23.961Z,25.00
2018-08-04T07:08:21.563Z,25.30
2018-08-04T07:10:50.653Z,25.50
2018-08-04T07:13:19.636Z,25.60
2018-08-04T07:15:48.602Z,25.70
2018-08-04T07:23:15.026Z,25.10
2018-08-04T07:25:44.146Z,25.00
2018-08-04T07:28:13.077Z,25.20
2018-08-04T07:33:11.830Z,24.90
2018-08-04T07:35:40.855Z,24.70
2018-08-04T07:38:09.838Z,24.60
2018-08-04T07:40:38.898Z,24.80
2018-08-04T07:43:09.007Z,24.90
2018-08-04T07:45:38.188Z,24.90
2018-08-04T07:48:07.228Z,24.70
2018-08-04T07:50:36.286Z,24.80
2018-08-04T07:53:05.910Z,24.80
2018-08-04T07:55:35.224Z,25.00
2018-08-04T07:58:04.235Z,25.00
2018-08-04T08:00:33.296Z,24.90
2018-08-04T08:03:02.359Z,24.90
2018-08-04T08:05:31.413Z,25.20
2018-08-04T08:08:00.551Z,25.50
2018-08-04T08:10:29.625Z,25.90
2018-08-04T08:15:27.198Z,26.40
2018-08-04T08:17:56.238Z,26.70
2018-08-04T08:25:22.600Z,27.20
2018-08-04T08:30:20.227Z,27.30
2018-08-04T08:32:49.276Z,27.40
2018-08-04T08:35:18.217Z,27.50
2018-08-04T08:37:47.274Z,27.30
2018-08-04T08:42:46.852Z,27.40
2018-08-04T08:45:15.895Z,27.40
2018-08-04T08:47:46.141Z,27.30
2018-08-04T08:50:15.150Z,27.40
2018-08-04T08:52:44.202Z,27.50
2018-08-04T08:55:13.147Z,27.80
2018-08-04T08:57:42.231Z,27.90
2018-08-04T09:00:11.781Z,28.10
2018-08-04T09:02:40.751Z,28.30
2018-08-04T09:05:10.505Z,28.20
2018-08-04T09:07:39.843Z,28.20
2018-08-04T09:10:11.317Z,28.20
2018-08-04T09:12:40.500Z,27.90
2018-08-04T09:15:09.617Z,27.80
2018-08-04T09:17:38.690Z,27.60
2018-08-04T09:20:08.478Z,27.40
2018-08-04T09:22:37.532Z,27.40
2018-08-04T09:25:06.899Z,27.20
2018-08-04T09:27:35.893Z,27.00
2018-08-04T09:30:07.197Z,26.80
2018-08-04T09:35:05.290Z,26.60
2018-08-04T09:37:34.231Z,26.80
2018-08-04T09:40:03.339Z,26.80
2018-08-04T09:42:32.420Z,27.30
2018-08-04T09:45:01.628Z,27.30
2018-08-04T09:47:31.508Z,27.40
2018-08-04T09:50:02.003Z,27.30
2018-08-04T09:52:31.137Z,27.50
2018-08-04T09:55:00.104Z,27.40
2018-08-04T09:57:29.194Z,27.50
2018-08-04T09:59:58.199Z,27.50
2018-08-04T10:04:57.119Z,27.80
2018-08-04T10:07:26.239Z,27.90
2018-08-04T10:09:55.242Z,27.90
2018-08-04T10:12:24.243Z,28.00
2018-08-04T10:14:53.203Z,28.00
2018-08-04T10:17:22.317Z,28.00
2018-08-04T10:19:51.328Z,28.20
2018-08-04T10:22:21.438Z,28.20
2018-08-04T10:24:50.438Z,28.10
2018-08-04T10:27:19.423Z,28.00
2018-08-04T10:29:48.635Z,27.70
2018-08-04T10:32:17.654Z,27.80
2018-08-04T10:34:46.574Z,28.00
2018-08-04T10:37:15.670Z,28.00
2018-08-04T10:39:44.682Z,28.10
2018-08-04T10:42:13.866Z,27.90
2018-08-04T10:44:43.009Z,27.90
2018-08-04T10:47:12.001Z,27.90
2018-08-04T10:49:40.959Z,28.00
2018-08-04T10:52:10.040Z,28.10
2018-08-04T10:57:07.693Z,28.10
2018-08-04T10:59:36.597Z,28.30
2018-08-04T11:02:07.588Z,28.40
2018-08-04T11:04:36.638Z,28.40
2018-08-04T11:09:34.276Z,28.60
2018-08-04T11:12:03.361Z,28.50
2018-08-04T11:14:32.442Z,28.70
2018-08-04T11:17:01.559Z,28.70
2018-08-04T11:19:30.673Z,28.60
2018-08-04T11:21:59.643Z,28.50
2018-08-04T11:24:28.705Z,28.60
2018-08-04T11:29:26.331Z,28.80
2018-08-04T11:31:55.251Z,28.90
2018-08-04T11:36:53.923Z,29.10
2018-08-04T11:39:22.891Z,29.10
2018-08-04T11:41:51.813Z,29.40
2018-08-04T11:44:20.794Z,29.20
2018-08-04T11:46:49.845Z,29.20
2018-08-04T11:49:18.764Z,29.10
2018-08-04T11:54:17.626Z,29.00
2018-08-04T11:56:46.693Z,28.90
2018-08-04T11:59:15.778Z,28.80
2018-08-04T12:01:44.742Z,28.80
2018-08-04T12:04:13.675Z,29.10
2018-08-04T12:06:42.678Z,29.00
2018-08-04T12:09:13.082Z,29.10
2018-08-04T12:11:42.541Z,29.00
2018-08-04T12:14:12.473Z,29.00
2018-08-04T12:16:41.449Z,29.10
2018-08-04T12:21:39.220Z,28.90
2018-08-04T12:26:36.961Z,28.80
2018-08-04T12:29:07.064Z,28.90
2018-08-04T12:31:36.204Z,29.00
2018-08-04T12:34:05.582Z,29.20
2018-08-04T12:36:34.734Z,29.20
2018-08-04T12:39:05.214Z,29.50
2018-08-04T12:41:35.580Z,29.60
2018-08-04T12:44:05.451Z,29.80
2018-08-04T12:46:34.452Z,29.90
2018-08-04T12:49:03.538Z,30.20
2018-08-04T12:51:32.544Z,30.20
2018-08-04T12:54:01.933Z,29.90
2018-08-04T12:56:31.160Z,29.70
2018-08-04T12:59:00.865Z,29.60
2018-08-04T13:01:30.335Z,29.80
2018-08-04T13:04:00.235Z,29.90
2018-08-04T13:06:29.520Z,30.20
2018-08-04T13:08:59.721Z,30.20
2018-08-04T13:11:29.199Z,30.20
2018-08-04T13:13:59.524Z,30.20
2018-08-04T13:18:57.347Z,30.20
2018-08-04T13:21:26.580Z,30.20
2018-08-04T13:26:24.382Z,30.50
2018-08-04T13:28:55.532Z,30.70
2018-08-04T13:31:25.669Z,31.00
2018-08-04T13:33:55.790Z,30.90
2018-08-04T13:36:24.958Z,31.10
2018-08-04T13:38:54.036Z,30.40
2018-08-04T13:41:23.103Z,30.30
2018-08-04T13:46:21.118Z,31.00
2018-08-04T13:48:50.078Z,30.80
2018-08-04T13:51:19.118Z,30.30
2018-08-04T13:53:48.160Z,30.20
2018-08-04T13:56:17.211Z,30.30
2018-08-04T13:58:46.517Z,30.50
2018-08-04T14:01:15.531Z,30.60
2018-08-04T14:03:44.675Z,31.20
2018-08-04T14:06:13.747Z,31.30
2018-08-04T14:08:42.791Z,31.70
2018-08-04T14:11:12.420Z,32.20
2018-08-04T14:13:41.411Z,32.10
2018-08-04T14:16:10.385Z,31.30
2018-08-04T14:18:39.535Z,31.70
2018-08-04T14:21:08.487Z,31.90
2018-08-04T14:23:38.023Z,32.30
2018-08-04T14:26:07.413Z,32.30
2018-08-04T14:28:36.492Z,32.40
2018-08-04T14:33:34.385Z,32.10
2018-08-04T14:36:03.273Z,32.60
2018-08-04T14:38:32.947Z,33.20
2018-08-04T14:41:01.988Z,32.90
2018-08-04T14:43:31.558Z,32.20
2018-08-04T14:46:01.927Z,31.70
2018-08-04T14:48:31.322Z,31.90
2018-08-04T14:51:00.434Z,31.30
2018-08-04T14:53:30.546Z,31.60
2018-08-04T14:56:00.016Z,31.70
2018-08-04T14:58:30.006Z,31.00
2018-08-04T15:00:59.154Z,30.60
2018-08-04T15:03:28.656Z,31.10
2018-08-04T15:05:57.958Z,31.90
2018-08-04T15:08:27.071Z,32.50
2018-08-04T15:10:56.158Z,32.50
2018-08-04T15:13:25.154Z,32.50
2018-08-04T15:15:54.144Z,32.60
2018-08-04T15:18:23.168Z,32.50
2018-08-04T15:20:53.370Z,32.60
2018-08-04T15:23:22.342Z,31.90
2018-08-04T15:25:51.830Z,31.10
2018-08-04T15:28:21.058Z,31.60
2018-08-04T15:30:50.102Z,32.40
2018-08-04T15:33:19.390Z,32.90
2018-08-04T15:35:48.746Z,32.80
2018-08-04T15:38:19.200Z,33.00
2018-08-04T15:40:48.242Z,32.40
2018-08-04T15:43:17.410Z,32.90
2018-08-04T15:45:46.731Z,33.40
2018-08-04T15:48:16.590Z,32.90
2018-08-04T15:50:46.423Z,32.60
2018-08-04T15:58:15.556Z,32.50
2018-08-04T16:00:44.497Z,32.00
2018-08-04T16:03:13.671Z,31.90
2018-08-04T16:08:11.973Z,31.10
2018-08-04T16:10:41.215Z,31.30
2018-08-04T16:13:10.419Z,31.40
2018-08-04T16:15:40.317Z,31.60
2018-08-04T16:18:09.789Z,32.10
2018-08-04T16:20:41.044Z,32.70
2018-08-04T16:25:38.686Z,31.80
2018-08-04T16:28:07.651Z,30.90
2018-08-04T16:30:36.770Z,30.30
2018-08-04T16:33:06.140Z,30.30
2018-08-04T16:35:35.351Z,30.20
2018-08-04T16:38:04.556Z,29.80
2018-08-04T16:40:34.119Z,29.90
2018-08-04T16:45:32.232Z,30.00
2018-08-04T16:48:01.263Z,29.60
2018-08-04T16:50:30.362Z,29.10
2018-08-04T16:52:59.440Z,28.60
2018-08-04T16:55:29.141Z,28.60
2018-08-04T16:57:58.374Z,28.60
2018-08-04T17:00:27.851Z,28.60
2018-08-04T17:02:59.069Z,28.70
2018-08-04T17:05:28.615Z,28.70
2018-08-04T17:07:57.927Z,28.60
2018-08-04T17:10:26.945Z,28.00
2018-08-04T17:12:56.155Z,27.70
2018-08-04T17:17:54.873Z,27.50
2018-08-04T17:20:24.390Z,27.50
2018-08-04T17:22:53.697Z,27.40
2018-08-04T17:25:22.818Z,27.60
2018-08-04T17:27:51.962Z,27.80
2018-08-04T17:32:51.638Z,27.50
2018-08-04T17:35:21.035Z,27.30
2018-08-04T17:37:50.724Z,27.30
2018-08-04T17:40:20.280Z,27.30
2018-08-04T17:42:49.506Z,27.30
2018-08-04T17:45:18.980Z,27.40
2018-08-04T17:47:47.896Z,27.40
2018-08-04T17:52:46.041Z,27.00
2018-08-04T17:55:15.145Z,26.80
2018-08-04T18:02:42.947Z,26.40
2018-08-04T18:05:11.982Z,26.40
2018-08-04T18:10:09.728Z,26.30
2018-08-04T18:12:38.938Z,26.10
2018-08-04T18:15:08.066Z,25.90
2018-08-04T18:20:06.371Z,25.60
2018-08-04T18:22:35.601Z,25.40
2018-08-04T18:25:05.131Z,25.40
2018-08-04T18:27:34.106Z,25.30
2018-08-04T18:30:03.612Z,25.30
2018-08-04T18:35:02.634Z,24.90
2018-08-04T18:37:31.690Z,24.80
2018-08-04T18:40:01.714Z,24.60
2018-08-04T18:42:30.942Z,24.50
2018-08-04T18:45:00.240Z,24.50
2018-08-04T18:47:29.744Z,24.40
2018-08-04T18:49:59.267Z,24.30
2018-08-04T18:52:28.298Z,24.20
2018-08-04T18:54:57.501Z,24.00
2018-08-04T18:57:27.194Z,23.90
2018-08-04T18:59:56.429Z,23.80
2018-08-04T19:02:25.615Z,23.70
2018-08-04T19:04:55.009Z,23.60
2018-08-04T19:07:24.275Z,23.50
2018-08-04T19:09:53.673Z,23.40
2018-08-04T19:12:23.223Z,23.20
2018-08-04T19:14:53.067Z,23.10
2018-08-04T19:17:22.142Z,23.10
2018-08-04T19:19:51.156Z,23.00
2018-08-04T19:22:20.276Z,23.00
2018-08-04T19:24:49.496Z,22.90
2018-08-04T19:27:18.790Z,22.90
2018-08-04T19:29:48.604Z,22.80
2018-08-04T19:32:17.907Z,22.80
2018-08-04T19:34:47.398Z,22.60
2018-08-04T19:37:16.679Z,22.60
2018-08-04T19:39:46.147Z,22.50
2018-08-04T19:42:15.301Z,22.40
2018-08-04T19:44:44.654Z,22.10
2018-08-04T19:52:12.969Z,21.60
2018-08-04T19:54:42.069Z,21.50
2018-08-04T19:59:40.584Z,21.20
2018-08-04T20:02:09.579Z,21.10
2018-08-04T20:04:38.598Z,21.00
2018-08-04T20:07:07.594Z,20.90
2018-08-04T20:09:36.631Z,20.90
2018-08-04T20:14:34.583Z,20.90
2018-08-04T20:17:03.592Z,21.00
2018-08-04T20:19:32.558Z,21.10
2018-08-04T20:22:01.511Z,21.20
2018-08-04T20:24:30.538Z,21.20
2018-08-04T20:26:59.583Z,21.30
2018-08-04T20:31:58.557Z,21.30
2018-08-04T20:34:28.044Z,21.30
2018-08-04T20:36:57.004Z,21.30
2018-08-04T20:39:25.923Z,21.40
2018-08-04T20:41:54.821Z,21.30
2018-08-04T20:44:23.791Z,21.30
2018-08-04T20:51:50.167Z,21.20
2018-08-04T20:54:19.182Z,21.10
2018-08-04T20:56:48.286Z,21.10
2018-08-04T20:59:17.255Z,21.00
2018-08-04T21:01:48.477Z,20.90
2018-08-04T21:04:18.004Z,20.80
2018-08-04T21:09:16.561Z,20.80
2018-08-04T21:11:48.346Z,20.70
2018-08-04T21:14:17.669Z,20.70
2018-08-04T21:16:46.996Z,20.60
2018-08-04T21:19:15.996Z,20.50
2018-08-04T21:21:44.978Z,20.50
2018-08-04T21:24:13.984Z,20.50
2018-08-04T21:26:43.054Z,20.50
2018-08-04T21:29:12.079Z,20.50
2018-08-04T21:31:41.010Z,20.40
2018-08-04T21:34:10.967Z,20.40
2018-08-04T21:36:40.558Z,20.30
2018-08-04T21:39:13.262Z,20.30
2018-08-04T21:41:42.988Z,20.20
2018-08-04T21:44:12.351Z,20.20
2018-08-04T21:46:43.889Z,20.20
2018-08-04T21:49:13.352Z,20.10
2018-08-04T21:51:43.739Z,20.10
2018-08-04T21:54:13.793Z,20.00
2018-08-04T21:56:43.070Z,20.00
2018-08-04T21:59:12.190Z,19.90
2018-08-04T22:01:46.912Z,19.90
2018-08-04T22:04:15.770Z,19.80
2018-08-04T22:07:58.116Z,19.70
2018-08-04T22:10:27.674Z,19.70
2018-08-04T22:12:57.150Z,19.60
2018-08-04T22:15:26.496Z,19.50
2018-08-04T22:17:55.588Z,19.50
2018-08-04T22:20:26.131Z,19.40
2018-08-04T22:22:55.633Z,19.40
2018-08-04T22:25:26.862Z,19.40
2018-08-04T22:27:56.421Z,19.40
2018-08-04T22:30:25.784Z,19.30
2018-08-04T22:32:54.723Z,19.20
2018-08-04T22:35:23.900Z,19.10
2018-08-04T22:37:53.040Z,19.00
2018-08-04T22:40:22.272Z,19.00
2018-08-04T22:42:51.189Z,19.00
2018-08-04T22:45:28.076Z,19.10
2018-08-04T22:47:57.019Z,19.10
2018-08-04T22:50:25.898Z,19.10
2018-08-04T22:52:55.020Z,19.10
2018-08-04T22:55:24.239Z,19.20
2018-08-04T22:57:53.211Z,19.20
2018-08-04T23:00:22.227Z,19.30
2018-08-04T23:02:51.674Z,19.30
2018-08-04T23:05:20.714Z,19.30
2018-08-04T23:07:49.664Z,19.40
2018-08-04T23:10:18.769Z,19.40
2018-08-04T23:12:47.835Z,19.30
2018-08-04T23:15:16.888Z,19.40
2018-08-04T23:17:46.115Z,19.40
2018-08-04T23:20:15.070Z,19.40
2018-08-04T23:22:44.031Z,19.40
2018-08-04T23:25:13.464Z,19.40
2018-08-04T23:27:42.582Z,19.30
2018-08-04T23:30:11.593Z,19.20
2018-08-04T23:32:40.590Z,19.10
2018-08-04T23:35:09.977Z,19.10
2018-08-04T23:37:39.047Z,19.00
2018-08-04T23:40:07.966Z,19.00
2018-08-04T23:42:37.059Z,19.00
2018-08-04T23:45:06.337Z,19.00
2018-08-04T23:47:35.482Z,18.90
2018-08-04T23:50:04.922Z,18.90
2018-08-04T23:52:33.909Z,18.90
2018-08-04T23:55:03.185Z,18.90
2018-08-04T23:57:32.283Z,18.80
